createdAt,value
2022-11-19T00:02:08.762Z,99430.75
2022-11-19T00:04:37.121Z,99675.34
2022-11-19T00:07:06.632Z,99674.56
2022-11-19T00:09:34.616Z,99682.00
2022-11-19T00:12:19.864Z,99577.88
2022-11-19T00:14:48.063Z,99636.59
2022-11-19T00:17:16.672Z,99630.91
2022-11-19T00:19:44.825Z,99454.25
2022-11-19T00:22:14.308Z,99677.66
2022-11-19T00:24:42.249Z,99661.59
2022-11-19T00:27:13.126Z,99275.19
2022-11-19T00:29:41.491Z,99668.06
2022-11-19T00:32:10.340Z,99677.28
2022-11-19T00:34:38.720Z,99676.44
2022-11-19T00:37:06.807Z,99670.38
2022-11-19T00:39:36.518Z,99635.13
2022-11-19T00:42:05.569Z,99242.53
2022-11-19T00:44:37.443Z,99520.84
2022-11-19T00:47:06.506Z,99168.72
2022-11-19T00:49:36.045Z,99220.97
2022-11-19T00:52:05.132Z,99666.91
2022-11-19T00:54:36.272Z,99493.50
2022-11-19T00:57:06.253Z,99219.59
2022-11-19T00:59:34.605Z,99478.66
2022-11-19T01:02:02.586Z,99673.72
2022-11-19T01:04:30.461Z,99672.13
2022-11-19T01:06:59.430Z,99330.94
2022-11-19T01:09:30.867Z,99558.31
2022-11-19T01:12:06.204Z,99674.53
2022-11-19T01:14:36.079Z,99237.66
2022-11-19T01:17:10.699Z,99137.53
2022-11-19T01:19:40.564Z,99321.25
2022-11-19T01:22:09.999Z,99631.13
2022-11-19T01:24:38.771Z,99235.69
2022-11-19T01:27:08.787Z,99691.84
2022-11-19T01:29:40.324Z,99680.47
2022-11-19T01:32:11.763Z,99169.34
2022-11-19T01:34:43.592Z,99371.47
2022-11-19T01:37:15.680Z,99226.09
2022-11-19T01:39:47.562Z,99581.13
2022-11-19T01:42:48.824Z,99535.81
2022-11-19T01:45:32.264Z,99682.66
2022-11-19T01:48:17.570Z,99690.41
2022-11-19T01:50:51.280Z,99534.53
2022-11-19T01:53:20.926Z,99247.06
2022-11-19T01:55:50.796Z,99202.94
2022-11-19T01:58:24.000Z,99254.41
2022-11-19T02:00:55.876Z,99443.19
2022-11-19T02:03:25.220Z,99696.41
2022-11-19T02:05:54.648Z,99432.41
2022-11-19T02:08:38.054Z,99601.66
2022-11-19T02:11:25.732Z,99622.28
2022-11-19T02:14:04.513Z,99693.75
2022-11-19T02:16:40.919Z,99702.78
2022-11-19T02:19:25.064Z,99637.75
2022-11-19T02:22:09.883Z,99701.78
2022-11-19T02:24:48.666Z,99705.50
2022-11-19T02:28:02.258Z,99708.44
2022-11-19T02:30:36.219Z,99726.78
2022-11-19T02:33:08.851Z,99570.88
2022-11-19T02:35:46.007Z,99710.34
2022-11-19T02:38:23.167Z,99676.22
2022-11-19T02:40:57.090Z,99611.94
2022-11-19T02:43:31.825Z,99621.84
2022-11-19T02:46:06.188Z,99697.59
2022-11-19T02:48:38.183Z,99712.81
2022-11-19T02:51:07.719Z,99619.09
2022-11-19T02:53:36.186Z,99552.44
2022-11-19T02:56:13.760Z,99229.53
2022-11-19T02:59:05.744Z,99338.22
2022-11-19T03:01:57.642Z,99686.94
2022-11-19T03:04:33.326Z,99677.00
2022-11-19T03:07:06.188Z,99734.13
2022-11-19T03:09:37.706Z,99660.16
2022-11-19T03:12:12.062Z,99702.28
2022-11-19T03:15:06.586Z,99512.44
2022-11-19T03:17:52.061Z,99699.31
2022-11-19T03:20:24.236Z,99352.19
2022-11-19T03:22:59.367Z,99744.41
2022-11-19T03:25:30.206Z,99647.81
2022-11-19T03:28:02.393Z,99650.13
2022-11-19T03:30:31.624Z,99770.75
2022-11-19T03:33:05.521Z,99777.16
2022-11-19T03:35:39.048Z,99561.47
2022-11-19T03:38:11.858Z,99756.56
2022-11-19T03:40:42.950Z,99762.19
2022-11-19T03:43:14.485Z,99762.50
2022-11-19T03:45:45.197Z,99553.66
2022-11-19T03:48:16.710Z,99672.50
2022-11-19T03:50:50.154Z,99669.22
2022-11-19T03:53:22.086Z,99789.38
2022-11-19T03:55:55.107Z,99722.41
2022-11-19T03:58:25.430Z,99699.78
2022-11-19T04:00:53.695Z,99729.53
2022-11-19T04:03:23.258Z,99796.63
2022-11-19T04:05:51.120Z,99589.38
2022-11-19T04:08:19.056Z,99795.41
2022-11-19T04:10:46.907Z,99739.59
2022-11-19T04:13:14.816Z,99703.09
2022-11-19T04:15:42.666Z,99730.09
2022-11-19T04:18:10.576Z,99515.91
2022-11-19T04:20:39.885Z,99537.25
2022-11-19T04:23:07.710Z,99812.81
2022-11-19T04:25:35.614Z,99818.19
2022-11-19T04:28:03.508Z,99783.28
2022-11-19T04:30:31.356Z,99823.81
2022-11-19T04:32:59.336Z,99601.44
2022-11-19T04:35:27.303Z,99728.69
2022-11-19T04:37:56.580Z,99830.28
2022-11-19T04:40:24.396Z,99691.72
2022-11-19T04:42:52.222Z,99764.34
2022-11-19T04:45:20.111Z,99844.13
2022-11-19T04:47:47.945Z,99841.84
2022-11-19T04:50:15.894Z,99778.31
2022-11-19T04:52:43.818Z,99734.88
2022-11-19T04:55:13.037Z,99740.00
2022-11-19T04:57:41.011Z,99616.22
2022-11-19T05:00:10.101Z,99375.03
2022-11-19T05:02:37.976Z,99849.09
2022-11-19T05:05:06.583Z,99669.94
2022-11-19T05:07:34.624Z,99841.53
2022-11-19T05:10:02.745Z,99817.34
2022-11-19T05:12:32.155Z,99455.47
2022-11-19T05:15:00.006Z,99844.56
2022-11-19T05:17:27.887Z,99731.50
2022-11-19T05:19:55.811Z,99660.69
2022-11-19T05:22:23.716Z,99511.47
2022-11-19T05:24:51.739Z,99851.84
2022-11-19T05:27:19.772Z,99546.97
2022-11-19T05:29:48.942Z,99856.34
2022-11-19T05:32:16.837Z,99840.28
2022-11-19T05:34:44.743Z,99833.03
2022-11-19T05:37:12.653Z,99529.69
2022-11-19T05:39:42.127Z,99859.19
2022-11-19T05:42:10.132Z,99744.50
2022-11-19T05:44:38.047Z,99780.59
2022-11-19T05:47:07.707Z,99665.81
2022-11-19T05:49:35.547Z,99484.88
2022-11-19T05:52:03.470Z,99534.00
2022-11-19T05:54:31.596Z,99878.31
2022-11-19T05:56:59.509Z,99880.88
2022-11-19T05:59:27.345Z,99609.16
2022-11-19T06:01:55.230Z,99880.94
2022-11-19T06:04:24.637Z,99560.13
2022-11-19T06:06:52.779Z,99893.72
2022-11-19T06:09:20.973Z,99892.00
2022-11-19T06:11:50.771Z,99237.66
2022-11-19T06:14:22.078Z,99844.34
2022-11-19T06:16:51.286Z,99899.84
2022-11-19T06:19:20.234Z,99713.81
2022-11-19T06:21:51.715Z,99909.31
2022-11-19T06:24:20.567Z,99882.66
2022-11-19T06:26:48.494Z,99918.78
2022-11-19T06:29:17.748Z,99779.56
2022-11-19T06:31:46.887Z,99808.31
2022-11-19T06:34:15.268Z,99860.31
2022-11-19T06:36:49.123Z,99924.25
2022-11-19T06:39:20.277Z,99937.97
2022-11-19T06:41:49.730Z,99872.53
2022-11-19T06:44:18.010Z,99661.81
2022-11-19T06:46:46.331Z,99938.13
2022-11-19T06:49:19.656Z,99673.03
2022-11-19T06:51:48.390Z,99950.16
2022-11-19T06:54:16.240Z,99616.44
2022-11-19T06:56:45.570Z,99893.06
2022-11-19T06:59:13.620Z,99739.56
2022-11-19T07:01:41.472Z,99754.59
2022-11-19T07:04:09.373Z,99857.13
2022-11-19T07:06:37.315Z,99816.78
2022-11-19T07:09:05.147Z,99961.34
2022-11-19T07:11:32.944Z,99917.75
2022-11-19T07:14:03.858Z,99874.94
2022-11-19T07:16:34.323Z,99618.94
2022-11-19T07:19:04.904Z,99959.13
2022-11-19T07:21:33.420Z,99872.56
2022-11-19T07:24:03.350Z,99978.38
2022-11-19T07:26:32.317Z,99882.78
2022-11-19T07:29:04.992Z,99935.53
2022-11-19T07:31:33.751Z,99956.59
2022-11-19T07:34:02.254Z,99710.47
2022-11-19T07:36:30.178Z,99794.47
2022-11-19T07:38:58.990Z,99830.56
2022-11-19T07:41:44.683Z,99947.25
2022-11-19T07:44:13.927Z,99806.38
2022-11-19T07:46:42.386Z,99991.63
2022-11-19T07:49:10.331Z,99707.97
2022-11-19T07:51:38.449Z,100033.25
2022-11-19T07:54:06.732Z,99973.25
2022-11-19T07:56:34.551Z,100016.13
2022-11-19T07:59:02.628Z,99982.50
2022-11-19T08:01:32.030Z,99882.50
2022-11-19T08:04:01.020Z,99923.03
2022-11-19T08:06:31.006Z,100000.88
2022-11-19T08:08:58.847Z,100048.34
2022-11-19T08:11:26.717Z,99817.28
2022-11-19T08:13:54.720Z,99727.97
2022-11-19T08:16:40.604Z,100041.38
2022-11-19T08:19:11.814Z,99796.81
2022-11-19T08:21:43.205Z,100010.09
2022-11-19T08:24:12.007Z,100047.03
2022-11-19T08:26:40.742Z,100057.16
2022-11-19T08:29:15.713Z,99767.25
2022-11-19T08:31:45.825Z,100015.06
2022-11-19T08:34:15.732Z,99886.84
2022-11-19T08:39:27.590Z,99695.13
2022-11-19T08:42:17.369Z,100041.97
2022-11-19T08:44:45.358Z,99957.25
2022-11-19T08:47:13.343Z,100063.94
2022-11-19T08:49:42.601Z,99997.34
2022-11-19T08:52:10.511Z,99982.09
2022-11-19T08:54:38.332Z,100066.94
2022-11-19T08:57:06.291Z,100043.09
2022-11-19T08:59:34.133Z,99954.41
2022-11-19T09:02:01.997Z,99773.25
2022-11-19T09:04:35.122Z,100054.09
2022-11-19T09:07:07.226Z,99944.84
2022-11-19T09:09:35.171Z,100067.50
2022-11-19T09:12:02.954Z,100062.47
2022-11-19T09:14:37.947Z,100066.63
2022-11-19T09:17:09.898Z,100072.41
2022-11-19T09:19:40.072Z,100063.63
2022-11-19T09:22:09.549Z,100058.25
2022-11-19T09:24:37.683Z,100070.00
2022-11-19T09:27:05.623Z,99687.19
2022-11-19T09:29:33.521Z,99996.69
2022-11-19T09:32:01.331Z,100073.91
2022-11-19T09:34:29.396Z,100074.69
2022-11-19T09:36:58.441Z,100073.59
2022-11-19T09:39:27.715Z,99818.22
2022-11-19T09:42:02.560Z,100068.69
2022-11-19T09:45:06.097Z,100028.78
2022-11-19T09:47:49.863Z,100094.59
2022-11-19T09:50:20.760Z,99912.13
2022-11-19T09:52:53.000Z,99895.03
2022-11-19T09:55:28.381Z,100032.25
2022-11-19T09:57:58.546Z,99908.75
2022-11-19T10:00:30.306Z,99825.69
2022-11-19T10:03:00.020Z,100117.19
2022-11-19T10:05:34.867Z,99753.03
2022-11-19T10:08:13.964Z,100067.94
2022-11-19T10:10:48.437Z,100128.53
2022-11-19T10:13:32.309Z,100131.97
2022-11-19T10:16:26.255Z,100131.91
2022-11-19T10:19:04.465Z,100052.84
2022-11-19T10:21:42.080Z,100134.38
2022-11-19T10:24:18.128Z,99843.22
2022-11-19T10:26:56.430Z,99866.88
2022-11-19T10:29:29.057Z,100125.13
2022-11-19T10:32:20.124Z,100006.88
2022-11-19T10:34:54.598Z,99771.19
2022-11-19T10:37:25.312Z,99784.13
2022-11-19T10:39:59.073Z,100142.28
2022-11-19T10:42:33.297Z,99995.84
2022-11-19T10:45:06.311Z,99839.75
2022-11-19T10:47:42.069Z,100115.28
2022-11-19T10:50:17.436Z,100158.84
2022-11-19T10:52:49.553Z,99886.44
2022-11-19T10:55:24.223Z,100153.63
2022-11-19T10:58:06.730Z,100155.31
2022-11-19T11:00:35.737Z,100157.16
2022-11-19T11:03:04.197Z,100151.22
2022-11-19T11:05:32.638Z,100030.31
2022-11-19T11:08:02.173Z,100148.81
2022-11-19T11:10:44.192Z,99927.19
2022-11-19T11:13:58.823Z,99948.78
2022-11-19T11:16:40.154Z,100079.78
2022-11-19T11:19:14.730Z,100135.44
2022-11-19T11:21:44.030Z,99941.47
2022-11-19T11:24:13.173Z,100118.75
2022-11-19T11:26:41.455Z,99983.66
2022-11-19T12:06:17.931Z,99913.06
2022-11-19T12:08:55.520Z,100161.53
2022-11-19T12:11:50.541Z,100059.94
2022-11-19T12:14:23.204Z,100112.50
2022-11-19T12:17:16.511Z,99799.09
2022-11-19T12:20:07.335Z,99459.72
2022-11-19T12:22:49.260Z,100074.88
2022-11-19T12:25:27.071Z,99897.50
2022-11-19T12:28:20.199Z,100036.94
2022-11-19T12:30:59.860Z,100129.19
2022-11-19T12:33:49.743Z,100054.41
2022-11-19T12:36:26.916Z,100033.47
2022-11-19T12:39:03.924Z,100132.00
2022-11-19T12:41:57.845Z,100068.00
2022-11-19T12:44:38.603Z,100145.44
2022-11-19T12:47:18.484Z,100133.44
2022-11-19T12:50:13.809Z,99932.94
2022-11-19T12:53:15.805Z,100132.47
2022-11-19T12:55:54.714Z,100080.56
2022-11-19T12:58:31.563Z,99856.38
2022-11-19T13:01:02.314Z,99957.03
2022-11-19T13:03:45.961Z,99995.59
2022-11-19T13:06:20.890Z,100134.13
2022-11-19T13:08:53.164Z,100143.31
2022-11-19T13:11:29.319Z,99839.19
2022-11-19T13:14:02.698Z,100009.81
2022-11-19T13:16:33.824Z,100093.19
2022-11-19T13:19:15.922Z,100026.94
2022-11-19T13:21:53.678Z,99902.66
2022-11-19T13:24:32.561Z,99776.69
2022-11-19T13:27:04.852Z,99900.22
2022-11-19T13:29:42.674Z,100145.84
2022-11-19T13:32:18.948Z,100144.19
2022-11-19T13:35:00.548Z,100110.03
2022-11-19T13:37:40.588Z,100095.44
2022-11-19T13:40:20.610Z,100147.50
2022-11-19T13:43:31.014Z,100149.28
2022-11-19T13:46:07.373Z,100114.16
2022-11-19T13:48:41.220Z,100161.50
2022-11-19T13:51:15.719Z,99896.50
2022-11-19T13:53:46.444Z,99771.28
2022-11-19T13:56:17.476Z,99883.06
2022-11-19T13:58:50.730Z,100121.00
2022-11-19T14:01:41.585Z,99990.69
2022-11-19T14:04:31.547Z,100172.53
2022-11-19T14:07:18.431Z,99920.22
2022-11-19T14:09:58.331Z,99542.38
2022-11-19T14:12:45.886Z,99938.34
2022-11-19T14:15:48.940Z,100157.47
2022-11-19T14:18:43.545Z,100171.94
2022-11-19T14:22:01.343Z,100174.63
2022-11-19T14:25:15.573Z,100161.81
2022-11-19T14:27:44.501Z,99597.25
2022-11-19T14:30:16.775Z,100101.31
2022-11-19T14:32:50.210Z,100151.88
2022-11-19T14:35:42.816Z,99955.88
2022-11-19T14:38:40.567Z,99432.97
2022-11-19T14:41:30.991Z,99640.47
2022-11-19T14:44:16.112Z,100168.84
2022-11-19T14:46:50.705Z,99885.69
2022-11-19T14:49:28.736Z,100028.00
2022-11-19T14:52:03.826Z,100162.19
2022-11-19T14:54:43.422Z,99967.09
2022-11-19T14:57:28.781Z,100168.09
2022-11-19T15:00:01.478Z,100195.81
2022-11-19T15:02:37.095Z,100199.19
2022-11-19T15:05:17.657Z,100195.75
2022-11-19T15:07:56.467Z,99825.81
2022-11-19T15:10:35.365Z,100195.91
2022-11-19T15:13:18.599Z,100200.16
2022-11-19T15:15:48.658Z,100134.50
2022-11-19T15:18:51.244Z,100231.88
2022-11-19T15:21:57.946Z,100200.38
2022-11-19T15:24:40.214Z,100089.22
2022-11-19T15:27:17.648Z,99970.72
2022-11-19T15:30:05.426Z,100199.50
2022-11-19T15:32:59.449Z,100128.09
2022-11-19T15:36:03.941Z,100198.66
2022-11-19T15:38:39.717Z,99890.19
2022-11-19T15:41:12.458Z,100200.47
2022-11-19T15:43:44.722Z,100209.09
2022-11-19T15:46:16.123Z,100178.53
2022-11-19T15:48:58.860Z,100119.63
2022-11-19T15:51:27.222Z,100138.25
2022-11-19T15:54:00.970Z,100194.59
2022-11-19T15:56:32.867Z,100115.84
2022-11-19T15:59:03.277Z,100210.81
2022-11-19T16:01:34.301Z,100002.75
2022-11-19T16:04:07.493Z,100070.13
2022-11-19T16:06:37.796Z,99838.81
2022-11-19T16:09:08.656Z,100193.78
2022-11-19T16:11:57.106Z,100205.69
2022-11-19T16:14:44.398Z,100128.06
2022-11-19T16:17:41.820Z,100096.13
2022-11-19T16:20:21.296Z,100156.00
2022-11-19T16:22:54.896Z,100223.06
2022-11-19T16:25:32.878Z,99863.41
2022-11-19T16:28:03.607Z,100045.75
2022-11-19T16:30:41.380Z,100198.03
2022-11-19T16:33:14.725Z,100161.03
2022-11-19T16:35:42.700Z,100066.81
2022-11-19T16:38:15.537Z,100194.72
2022-11-19T16:41:03.777Z,100196.44
2022-11-19T16:43:31.784Z,100203.25
2022-11-19T16:46:01.542Z,100131.59
2022-11-19T16:48:59.952Z,100096.22
2022-11-19T16:51:35.512Z,100199.75
2022-11-19T16:54:04.577Z,99904.44
2022-11-19T16:56:38.137Z,100212.41
2022-11-19T16:59:07.534Z,100163.53
2022-11-19T17:01:35.924Z,100217.44
2022-11-19T17:04:07.982Z,100193.03
2022-11-19T17:06:38.452Z,100212.34
2022-11-19T17:09:07.820Z,100103.09
2022-11-19T17:12:15.483Z,100221.72
2022-11-19T17:14:55.593Z,100143.41
2022-11-19T17:17:41.437Z,100170.78
2022-11-19T17:20:49.964Z,100161.13
2022-11-19T17:23:20.115Z,100226.00
2022-11-19T17:25:50.535Z,100182.25
2022-11-19T17:28:22.709Z,100189.03
2022-11-19T17:30:51.043Z,100225.13
2022-11-19T17:33:22.832Z,100242.25
2022-11-19T17:35:51.830Z,100242.31
2022-11-19T17:38:23.751Z,100249.22
2022-11-19T17:40:53.442Z,100244.09
2022-11-19T17:43:42.838Z,100247.56
2022-11-19T17:46:11.302Z,100244.28
2022-11-19T17:48:41.629Z,100210.63
2022-11-19T17:51:12.723Z,100183.75
2022-11-19T17:53:40.884Z,100078.44
2022-11-19T17:56:18.142Z,100257.88
2022-11-19T17:58:47.242Z,100248.50
2022-11-19T18:01:15.559Z,100259.56
2022-11-19T18:03:43.658Z,100257.00
2022-11-19T18:06:13.012Z,100185.47
2022-11-19T18:08:42.095Z,100258.69
2022-11-19T18:11:12.220Z,100261.22
2022-11-19T18:13:42.189Z,100262.94
2022-11-19T18:16:14.678Z,100150.03
2022-11-19T18:18:42.626Z,100257.91
2022-11-19T18:21:12.926Z,100260.50
2022-11-19T18:23:41.174Z,100126.50
2022-11-19T18:26:10.726Z,100175.44
2022-11-19T18:28:43.812Z,100261.47
2022-11-19T18:31:17.626Z,100264.97
2022-11-19T18:33:47.742Z,100263.28
2022-11-19T18:36:18.684Z,100262.41
2022-11-19T18:38:47.432Z,100204.31
2022-11-19T18:41:18.872Z,100222.91
2022-11-19T18:44:04.482Z,99961.94
2022-11-19T18:46:34.589Z,100186.06
2022-11-19T18:49:02.787Z,99671.81
2022-11-19T18:51:32.559Z,99998.13
2022-11-19T18:54:01.011Z,100149.69
2022-11-19T18:56:28.908Z,100249.16
2022-11-19T18:59:00.420Z,100234.06
2022-11-19T19:01:33.904Z,100100.88
2022-11-19T19:04:02.232Z,100193.53
2022-11-19T19:06:30.089Z,100252.47
2022-11-19T19:08:58.154Z,100174.13
2022-11-19T19:11:43.697Z,100255.94
2022-11-19T19:14:11.496Z,100252.66
2022-11-19T19:16:42.551Z,100262.94
2022-11-19T19:19:11.183Z,99743.72
2022-11-19T19:21:39.007Z,100260.47
2022-11-19T19:24:07.469Z,100262.19
2022-11-19T19:26:35.363Z,100227.66
2022-11-19T19:29:04.479Z,100173.72
2022-11-19T19:31:33.465Z,99968.50
2022-11-19T19:34:03.228Z,99891.72
2022-11-19T19:36:31.939Z,100260.56
2022-11-19T19:39:00.258Z,99835.31
2022-11-19T19:41:29.287Z,99599.94
2022-11-19T19:43:58.499Z,100263.97
2022-11-19T19:46:26.319Z,100252.88
2022-11-19T19:48:55.933Z,100247.81
2022-11-19T19:51:27.748Z,100253.72
2022-11-19T19:53:56.156Z,100257.19
2022-11-19T19:56:25.506Z,100250.44
2022-11-19T19:58:53.925Z,100164.50
2022-11-19T20:01:24.305Z,100217.66
2022-11-19T20:03:54.877Z,100253.88
2022-11-19T20:06:27.053Z,100231.03
2022-11-19T20:08:55.299Z,99996.19
2022-11-19T20:11:25.896Z,99987.59
2022-11-19T20:13:55.293Z,100246.25
2022-11-19T20:16:25.383Z,100089.72
2022-11-19T20:18:54.496Z,100005.38
2022-11-19T20:21:26.849Z,100091.53
2022-11-19T20:23:55.372Z,99938.72
2022-11-19T20:26:26.432Z,99834.31
2022-11-19T20:28:57.259Z,100064.13
2022-11-19T20:31:25.932Z,100260.34
2022-11-19T20:33:56.294Z,100103.69
2022-11-19T20:36:27.361Z,100267.88
2022-11-19T20:38:57.385Z,100273.84
2022-11-19T20:41:45.737Z,100262.97
2022-11-19T20:44:21.488Z,99919.38
2022-11-19T20:46:51.941Z,100241.75
2022-11-19T20:49:21.726Z,99967.91
2022-11-19T20:51:51.410Z,100255.75
2022-11-19T20:54:21.392Z,100256.53
2022-11-19T20:56:49.802Z,99966.69
2022-11-19T20:59:21.186Z,99975.84
2022-11-19T21:01:51.554Z,100249.53
2022-11-19T21:04:21.265Z,100277.31
2022-11-19T21:06:49.728Z,100219.16
2022-11-19T21:09:20.304Z,100278.16
2022-11-19T21:11:48.657Z,100283.38
2022-11-19T21:14:16.460Z,100277.44
2022-11-19T21:16:44.370Z,100232.75
2022-11-19T21:19:13.454Z,100240.47
2022-11-19T21:21:41.649Z,100276.00
2022-11-19T21:24:09.712Z,100218.78
2022-11-19T21:26:38.994Z,100132.09
2022-11-19T21:34:06.837Z,100145.66
2022-11-19T21:41:18.974Z,100264.53
2022-11-19T21:45:13.306Z,99942.16
2022-11-19T21:48:15.632Z,99967.53
2022-11-19T22:20:15.419Z,99951.84
2022-11-19T22:47:51.576Z,100241.31
2022-11-19T22:50:19.539Z,100246.38
2022-11-19T22:52:47.404Z,100032.31
2022-11-19T22:55:15.447Z,100073.50
2022-11-19T22:57:43.402Z,99873.03
2022-11-19T23:00:16.168Z,100241.03
2022-11-19T23:02:47.521Z,99975.75
2022-11-19T23:05:16.114Z,100181.25
2022-11-19T23:07:44.012Z,100264.03
2022-11-19T23:10:12.364Z,99825.97
2022-11-19T23:16:24.177Z,100238.59
2022-11-19T23:18:55.304Z,100227.44
2022-11-19T23:21:56.732Z,99980.53
2022-11-19T23:27:40.650Z,99806.53
2022-11-19T23:30:25.756Z,100234.38
2022-11-19T23:33:10.713Z,99546.94
2022-11-19T23:35:40.993Z,99921.72
2022-11-19T23:38:09.238Z,99971.53
2022-11-19T23:40:37.279Z,100224.00
2022-11-19T23:43:05.305Z,99859.59
2022-11-19T23:45:36.693Z,99839.16
2022-11-19T23:48:05.637Z,100001.53
2022-11-19T23:50:34.315Z,99986.47
2022-11-19T23:53:03.691Z,100229.94
2022-11-19T23:55:31.760Z,100232.44
2022-11-19T23:57:59.851Z,99991.56
